Northwest Arkansas Regional Airport Fayetteville,Springdale, US
ICAO: KXNA
IATA: XNA
Category: Medium
Scheduled Services: No

Elevation: 1287 ft
TransAlt. 18000 ft.

Airport Communications:
RAZORBACK APP/DEP:121
ASOS:119.425
CTAF:127.1
GND:121.9
JONESBORO RDO:122.55
TWR:127.1
UNICOM:122.95

KXNA Zoom In..

If you have problems with the map follow the link
https://www.worldairports.se/pages/airport.php?
ICAO=KXNA

Runways:

(A) RW 16 length 8800 ft width 150 ft
ILS 110.55 / hdg 156

(B) RW 17 length 8800 ft width 150 ft
ILS 111.75 / hdg 156

(C) RW 34 length 8800 ft width 150 ft
ILS 110.55 / hdg 336

(D) RW 35 length 8800 ft width 150 ft
ILS 111.75 / hdg 336

Location; KXNA
Day. 16 / Time. 11.53 Zulu
* Altimeter: 30.12
* Temperature: 01° c. 33.8°f.
* Wind from: 000° Speed 00 kn.
Dewpoint: -03° c.
Visibility: 10 Statute Miles.
Clouds: Clear (automated report).

KXNA 161153Z 00000KT 10SM CLR 01/M03 A3012 RMK AO2 SLP204 T00111033 10067 20006 53008 $


Wind - Calm.

 
 
jpsmedia.com for Web Design worldairports.se 2018   terms of use